Inca, Spain
Current Conditions -  °F | °C
As of 11:30 PM on Monday 20 Oct 2014 (Local Time) from LEPA Reporting Station
Clear Clear  
Wind Chill: 63°   Ceiling: Unl
Heat Index: 63°   Visibility: 6mi
Dew Point: 63°   Wind: 1mph
Humidity: 100%   Direction: 50°NE
Pressure: 30.12"   Gusts: NA
Location:  39.72°N, 2.91°E
Report Text: LEPA 202130Z 05001KT CAVOK 17/17 Q1020 NOSIG
Loading
Personal Weather Stations






























Interactive Weather Map
Tropical Storm Tracking
New forecast layout! Learn more

10-Day Weather Forecast

Advertisements
Track Severe Weather on mobile